createdAt,value
2017-04-23T00:00:11.248Z,62.42
2017-04-23T00:01:12.281Z,62.71
2017-04-23T00:02:14.182Z,62.80
2017-04-23T00:03:15.197Z,62.91
2017-04-23T00:04:16.420Z,62.62
2017-04-23T00:05:17.621Z,62.96
2017-04-23T00:06:18.798Z,63.08
2017-04-23T00:07:19.890Z,63.38
2017-04-23T00:08:21.060Z,63.56
2017-04-23T00:09:22.282Z,63.90
2017-04-23T00:10:23.519Z,63.82
2017-04-23T00:11:24.718Z,63.61
2017-04-23T00:12:25.992Z,63.54
2017-04-23T00:13:27.157Z,63.61
2017-04-23T00:14:28.348Z,63.80
2017-04-23T00:15:29.790Z,63.61
2017-04-23T00:16:31.042Z,63.97
2017-04-23T00:17:32.160Z,63.81
2017-04-23T00:18:33.275Z,64.27
2017-04-23T00:19:34.481Z,64.11
2017-04-23T00:20:35.804Z,64.05
2017-04-23T00:21:37.016Z,64.30
2017-04-23T00:22:38.208Z,64.54
2017-04-23T00:23:39.339Z,64.59
2017-04-23T00:24:40.404Z,64.55
2017-04-23T00:25:41.529Z,64.28
2017-04-23T00:26:42.535Z,64.38
2017-04-23T00:27:43.584Z,64.61
2017-04-23T00:28:44.623Z,64.51
2017-04-23T00:29:45.793Z,64.70
2017-04-23T00:30:47.329Z,66.01
2017-04-23T00:31:48.530Z,66.17
2017-04-23T00:32:49.436Z,66.16
2017-04-23T00:33:50.414Z,66.63
2017-04-23T00:34:51.453Z,66.92
2017-04-23T00:35:52.454Z,66.91
2017-04-23T00:36:53.583Z,66.64
2017-04-23T00:37:54.487Z,66.38
2017-04-23T00:38:55.644Z,66.32
2017-04-23T00:39:56.855Z,66.47
2017-04-23T00:40:57.881Z,66.58
2017-04-23T00:41:59.001Z,66.37
2017-04-23T00:43:00.266Z,66.24
2017-04-23T00:44:01.357Z,66.61
2017-04-23T00:45:02.351Z,66.74
2017-04-23T00:46:03.385Z,66.75
2017-04-23T00:47:04.291Z,66.66
2017-04-23T00:48:05.211Z,66.57
2017-04-23T00:49:06.144Z,66.74
2017-04-23T00:50:07.061Z,66.87
2017-04-23T00:51:08.142Z,67.23
2017-04-23T00:52:09.306Z,67.67
2017-04-23T00:53:10.467Z,67.79
2017-04-23T00:54:11.502Z,67.90
2017-04-23T00:55:12.631Z,68.35
2017-04-23T00:56:13.711Z,69.06
2017-04-23T00:57:15.003Z,69.82
2017-04-23T00:58:16.076Z,69.14
2017-04-23T00:59:17.293Z,69.31
2017-04-23T01:00:18.210Z,69.38
2017-04-23T01:01:19.266Z,69.25
2017-04-23T01:02:20.275Z,68.96
2017-04-23T01:03:21.549Z,68.62
2017-04-23T01:04:22.513Z,69.03
2017-04-23T01:05:23.704Z,69.16
2017-04-23T01:06:24.968Z,69.62
2017-04-23T01:07:26.033Z,69.07
2017-04-23T01:08:26.913Z,69.08
2017-04-23T01:09:28.169Z,69.08
2017-04-23T01:10:29.667Z,68.63
2017-04-23T01:11:30.804Z,68.34
2017-04-23T01:12:31.960Z,68.59
2017-04-23T01:13:32.929Z,69.16
2017-04-23T01:14:34.121Z,69.00
2017-04-23T01:15:35.380Z,68.47
2017-04-23T01:16:36.403Z,68.59
2017-04-23T01:17:37.726Z,68.42
2017-04-23T01:18:38.867Z,68.25
2017-04-23T01:19:39.927Z,68.65
2017-04-23T01:20:40.870Z,68.86
2017-04-23T01:21:41.789Z,69.62
2017-04-23T01:22:43.056Z,69.52
2017-04-23T01:23:44.221Z,68.79
2017-04-23T01:24:45.297Z,69.12
2017-04-23T01:25:46.445Z,69.22
2017-04-23T01:26:47.476Z,69.45
2017-04-23T01:27:48.701Z,69.68
2017-04-23T01:28:49.613Z,69.56
2017-04-23T01:29:50.684Z,69.03
2017-04-23T01:30:51.691Z,69.09
2017-04-23T01:31:52.619Z,69.32
2017-04-23T01:32:54.557Z,68.96
2017-04-23T01:33:55.491Z,68.85
2017-04-23T01:34:56.740Z,68.71
2017-04-23T01:35:57.853Z,68.84
2017-04-23T01:36:59.132Z,68.97
2017-04-23T01:38:00.270Z,69.03
2017-04-23T01:39:01.628Z,68.76
2017-04-23T01:40:02.620Z,68.65
2017-04-23T01:41:03.888Z,68.51
2017-04-23T01:42:05.075Z,69.37
2017-04-23T01:43:06.332Z,69.23
2017-04-23T01:44:07.554Z,68.69
2017-04-23T01:45:08.771Z,68.38
2017-04-23T01:46:09.893Z,68.96
2017-04-23T01:47:10.973Z,68.97
2017-04-23T01:48:12.572Z,69.25
2017-04-23T01:49:13.541Z,68.97
2017-04-23T01:50:14.765Z,69.06
2017-04-23T01:51:15.845Z,68.58
2017-04-23T01:52:17.094Z,68.61
2017-04-23T01:53:18.059Z,69.00
2017-04-23T01:54:19.232Z,69.09
2017-04-23T01:55:20.479Z,68.91
2017-04-23T01:56:21.475Z,68.90
2017-04-23T01:57:22.614Z,68.73
2017-04-23T01:58:23.820Z,68.51
2017-04-23T01:59:24.955Z,68.82
2017-04-23T02:00:25.933Z,68.73
2017-04-23T02:01:27.015Z,68.79
2017-04-23T02:02:28.072Z,68.93
2017-04-23T02:03:29.083Z,69.13
2017-04-23T02:04:30.050Z,68.98
2017-04-23T02:05:31.262Z,68.86
2017-04-23T02:06:32.220Z,69.13
2017-04-23T02:07:33.275Z,69.61
2017-04-23T02:08:34.379Z,69.03
2017-04-23T02:09:35.656Z,69.24
2017-04-23T02:10:37.470Z,69.26
2017-04-23T02:11:38.500Z,69.02
2017-04-23T02:12:39.456Z,69.13
2017-04-23T02:13:40.560Z,69.55
2017-04-23T02:14:41.592Z,69.71
2017-04-23T02:15:42.628Z,69.72
2017-04-23T02:16:43.597Z,69.28
2017-04-23T02:17:44.672Z,69.35
2017-04-23T02:18:45.665Z,69.63
2017-04-23T02:19:46.787Z,69.81
2017-04-23T02:20:47.893Z,69.79
2017-04-23T02:21:48.964Z,69.95
2017-04-23T02:22:49.976Z,70.04
2017-04-23T02:23:51.450Z,70.26
2017-04-23T02:24:52.816Z,70.13
2017-04-23T02:25:54.055Z,70.29
2017-04-23T02:26:55.628Z,70.00
2017-04-23T02:27:56.621Z,69.59
2017-04-23T02:28:57.556Z,69.69
2017-04-23T02:29:58.531Z,69.63
2017-04-23T02:30:59.548Z,69.60
2017-04-23T02:32:00.563Z,69.62
2017-04-23T02:33:01.898Z,69.72
2017-04-23T02:34:02.942Z,69.53
2017-04-23T02:35:04.336Z,69.53
2017-04-23T02:36:06.001Z,69.20
2017-04-23T02:37:06.996Z,68.99
2017-04-23T02:38:08.116Z,69.52
2017-04-23T02:39:09.045Z,69.71
2017-04-23T02:40:10.155Z,69.88
2017-04-23T02:41:11.214Z,69.78
2017-04-23T02:42:12.531Z,70.12
2017-04-23T02:43:14.109Z,70.15
2017-04-23T02:44:15.292Z,70.14
2017-04-23T02:45:16.252Z,69.94
2017-04-23T02:46:17.454Z,70.05
2017-04-23T02:47:18.488Z,70.18
2017-04-23T02:48:19.701Z,70.29
2017-04-23T02:49:20.618Z,70.09
2017-04-23T02:50:22.143Z,70.14
2017-04-23T02:51:23.180Z,70.09
2017-04-23T02:52:24.299Z,70.15
2017-04-23T02:53:25.207Z,70.40
2017-04-23T02:54:26.382Z,70.31
2017-04-23T02:55:27.737Z,70.33
2017-04-23T02:56:29.298Z,70.10
2017-04-23T02:57:30.634Z,69.90
2017-04-23T02:58:32.420Z,69.67
2017-04-23T02:59:33.337Z,69.45
2017-04-23T03:00:34.486Z,69.71
2017-04-23T03:01:35.722Z,69.87
2017-04-23T03:02:36.685Z,69.63
2017-04-23T03:03:37.860Z,69.32
2017-04-23T03:04:38.922Z,69.56
2017-04-23T03:05:39.980Z,69.57
2017-04-23T03:06:40.869Z,69.53
2017-04-23T03:07:41.869Z,69.54
2017-04-23T03:08:42.755Z,69.37
2017-04-23T03:09:43.749Z,69.58
2017-04-23T03:10:44.690Z,69.29
2017-04-23T03:11:45.634Z,69.15
2017-04-23T03:12:46.793Z,69.00
2017-04-23T03:13:47.654Z,68.91
2017-04-23T03:14:48.814Z,69.25
2017-04-23T03:15:49.662Z,69.54
2017-04-23T03:16:50.564Z,69.67
2017-04-23T03:17:55.653Z,69.55
2017-04-23T03:18:56.731Z,69.36
2017-04-23T03:19:57.840Z,69.61
2017-04-23T03:20:58.716Z,69.41
2017-04-23T03:21:59.920Z,69.55
2017-04-23T03:23:00.901Z,69.60
2017-04-23T03:24:02.431Z,69.67
2017-04-23T03:25:03.661Z,69.52
2017-04-23T03:26:04.796Z,69.19
2017-04-23T03:27:05.900Z,69.47
2017-04-23T03:28:06.791Z,69.57
2017-04-23T03:29:07.934Z,69.39
2017-04-23T03:30:08.991Z,69.27
2017-04-23T03:31:10.125Z,69.41
2017-04-23T03:32:11.175Z,69.79
2017-04-23T03:33:12.230Z,69.89
2017-04-23T03:34:13.143Z,69.55
2017-04-23T03:35:14.298Z,69.77
2017-04-23T03:36:15.405Z,69.67
2017-04-23T03:37:16.808Z,69.97
2017-04-23T03:38:17.903Z,70.01
2017-04-23T03:39:19.062Z,69.92
2017-04-23T03:40:20.057Z,70.13
2017-04-23T03:41:21.309Z,70.36
2017-04-23T03:42:22.603Z,69.97
2017-04-23T03:43:23.699Z,69.99
2017-04-23T03:44:24.820Z,70.33
2017-04-23T03:45:25.928Z,70.40
2017-04-23T03:46:26.823Z,70.10
2017-04-23T03:47:27.992Z,70.43
2017-04-23T03:48:29.081Z,70.13
2017-04-23T03:49:30.471Z,69.85
2017-04-23T03:50:31.594Z,70.01
2017-04-23T03:51:32.531Z,69.78
2017-04-23T03:52:33.638Z,69.94
2017-04-23T03:53:34.840Z,69.72
2017-04-23T03:54:35.824Z,70.20
2017-04-23T03:55:37.202Z,70.37
2017-04-23T03:56:38.480Z,70.12
2017-04-23T03:57:39.580Z,70.23
2017-04-23T03:58:40.732Z,70.37
2017-04-23T03:59:42.016Z,70.41
2017-04-23T04:00:42.980Z,70.52
2017-04-23T04:01:43.941Z,70.49
2017-04-23T04:02:45.072Z,70.89
2017-04-23T04:03:46.678Z,70.97
2017-04-23T04:04:47.876Z,70.61
2017-04-23T04:05:49.008Z,70.53
2017-04-23T04:06:49.985Z,70.26
2017-04-23T04:07:51.079Z,70.22
2017-04-23T04:08:52.241Z,69.80
2017-04-23T04:09:53.560Z,70.05
2017-04-23T04:10:55.034Z,70.44
2017-04-23T04:11:56.293Z,70.51
2017-04-23T04:12:57.440Z,70.39
2017-04-23T04:13:58.361Z,70.17
2017-04-23T04:14:59.436Z,69.89
2017-04-23T04:16:00.799Z,69.71
2017-04-23T04:17:03.178Z,69.72
2017-04-23T04:18:04.098Z,69.88
2017-04-23T04:19:05.228Z,70.08
2017-04-23T04:20:06.299Z,70.12
2017-04-23T04:21:07.513Z,70.01
2017-04-23T04:22:08.587Z,69.50
2017-04-23T04:23:09.477Z,69.72
2017-04-23T04:24:10.541Z,69.83
2017-04-23T04:25:11.657Z,69.52
2017-04-23T04:26:12.814Z,69.38
2017-04-23T04:27:13.855Z,69.45
2017-04-23T04:28:15.017Z,69.41
2017-04-23T04:29:16.548Z,69.36
2017-04-23T04:30:17.728Z,69.28
2017-04-23T04:31:18.852Z,69.39
2017-04-23T04:32:19.991Z,69.28
2017-04-23T04:33:21.037Z,69.35
2017-04-23T04:34:22.080Z,69.71
2017-04-23T04:35:23.211Z,69.83
2017-04-23T04:36:24.288Z,69.88
2017-04-23T04:37:25.382Z,69.65
2017-04-23T04:38:26.525Z,69.54
2017-04-23T04:39:27.684Z,69.51
2017-04-23T04:40:28.789Z,69.59
2017-04-23T04:41:30.071Z,69.62
2017-04-23T04:42:32.153Z,69.65
2017-04-23T04:43:33.221Z,69.46
2017-04-23T04:44:34.362Z,69.29
2017-04-23T04:45:35.466Z,69.19
2017-04-23T04:46:36.733Z,69.33
2017-04-23T04:47:37.705Z,69.82
2017-04-23T04:48:38.999Z,69.46
2017-04-23T04:49:40.087Z,69.11
2017-04-23T04:50:41.235Z,69.46
2017-04-23T04:51:42.360Z,69.78
2017-04-23T04:52:43.277Z,69.66
2017-04-23T04:53:44.259Z,69.40
2017-04-23T04:54:45.169Z,69.25
2017-04-23T04:55:46.431Z,69.16
2017-04-23T04:56:47.548Z,69.33
2017-04-23T04:57:48.817Z,69.15
2017-04-23T04:58:49.853Z,69.28
2017-04-23T04:59:50.954Z,69.13
2017-04-23T05:00:51.998Z,69.45
2017-04-23T05:01:53.069Z,69.76
2017-04-23T05:02:54.396Z,69.70
2017-04-23T05:03:55.652Z,69.68
2017-04-23T05:04:56.931Z,69.79
2017-04-23T05:05:58.079Z,69.49
2017-04-23T05:06:58.931Z,69.45
2017-04-23T05:08:00.466Z,69.83
2017-04-23T05:09:01.676Z,69.38
2017-04-23T05:10:02.749Z,69.40
2017-04-23T05:11:04.644Z,69.14
2017-04-23T05:12:05.718Z,69.02
2017-04-23T05:13:06.750Z,69.72
2017-04-23T05:14:07.884Z,69.45
2017-04-23T05:15:08.926Z,69.12
2017-04-23T05:16:10.107Z,68.84
2017-04-23T05:17:11.152Z,68.87
2017-04-23T05:18:12.182Z,69.06
2017-04-23T05:19:13.291Z,69.28
2017-04-23T05:20:14.368Z,69.13
2017-04-23T05:21:15.403Z,68.93
2017-04-23T05:22:16.534Z,68.93
2017-04-23T05:23:17.575Z,68.61
2017-04-23T05:24:18.800Z,68.77
2017-04-23T05:25:19.831Z,69.29
2017-04-23T05:26:20.972Z,69.48
2017-04-23T05:27:22.008Z,69.20
2017-04-23T05:28:23.108Z,69.15
2017-04-23T05:29:24.353Z,69.14
2017-04-23T05:30:25.432Z,69.21
2017-04-23T05:31:26.600Z,69.33
2017-04-23T05:32:27.690Z,69.56
2017-04-23T05:33:28.789Z,69.59
2017-04-23T05:34:29.912Z,69.81
2017-04-23T05:35:31.039Z,69.70
2017-04-23T05:36:32.132Z,69.87
2017-04-23T05:37:33.361Z,69.80
2017-04-23T05:38:34.507Z,69.99
2017-04-23T05:39:35.789Z,69.98
2017-04-23T05:40:36.968Z,69.69
2017-04-23T05:41:38.113Z,69.84
2017-04-23T05:42:39.161Z,69.87
2017-04-23T05:43:40.332Z,69.62
2017-04-23T05:44:41.460Z,69.69
2017-04-23T05:45:42.744Z,69.80
2017-04-23T05:46:43.954Z,69.91
2017-04-23T05:47:44.992Z,69.59
2017-04-23T05:48:46.313Z,69.15
2017-04-23T05:49:47.601Z,69.06
2017-04-23T05:50:48.579Z,68.92
2017-04-23T05:51:49.876Z,69.07
2017-04-23T05:52:51.302Z,69.06
2017-04-23T05:54:03.612Z,68.77
2017-04-23T05:55:07.937Z,69.02
2017-04-23T05:56:09.132Z,68.71
2017-04-23T05:57:10.479Z,68.75
2017-04-23T05:58:11.604Z,68.79
2017-04-23T05:59:13.602Z,68.59
2017-04-23T06:00:14.875Z,68.62
2017-04-23T06:01:16.278Z,68.19
2017-04-23T06:02:17.571Z,68.14
2017-04-23T06:03:18.626Z,67.85
2017-04-23T06:04:19.873Z,67.66
2017-04-23T06:05:21.208Z,67.46
2017-04-23T06:06:22.448Z,67.27
2017-04-23T06:07:24.632Z,67.28
2017-04-23T06:08:25.764Z,67.00
2017-04-23T06:09:26.956Z,66.61
2017-04-23T06:10:29.014Z,66.69
2017-04-23T06:11:30.221Z,66.87
2017-04-23T06:12:31.752Z,66.58
2017-04-23T06:13:32.949Z,66.61
2017-04-23T06:14:34.164Z,66.45
2017-04-23T06:15:35.459Z,66.56
2017-04-23T06:16:36.576Z,66.19
2017-04-23T06:17:37.884Z,66.05
2017-04-23T06:18:39.225Z,66.03
2017-04-23T06:19:40.627Z,65.82
2017-04-23T06:20:42.011Z,65.81
2017-04-23T06:21:43.788Z,65.77
2017-04-23T06:22:46.357Z,65.57
2017-04-23T06:23:47.605Z,65.60
2017-04-23T06:24:49.063Z,65.51
2017-04-23T06:25:50.136Z,65.53
2017-04-23T06:26:57.147Z,65.48
2017-04-23T06:27:59.725Z,65.33
2017-04-23T06:29:01.549Z,65.24
2017-04-23T06:30:03.071Z,65.46
2017-04-23T06:31:04.263Z,64.89
2017-04-23T06:32:05.933Z,64.68
2017-04-23T06:33:07.318Z,64.43
2017-04-23T06:34:08.798Z,64.25
2017-04-23T06:35:09.850Z,64.04
2017-04-23T06:36:11.029Z,63.99
2017-04-23T06:37:15.087Z,63.87
2017-04-23T06:38:20.729Z,63.77
2017-04-23T06:39:24.248Z,63.73
2017-04-23T06:40:26.297Z,63.79
2017-04-23T06:41:27.440Z,63.90
2017-04-23T06:42:28.589Z,63.84
2017-04-23T06:43:29.653Z,63.70
2017-04-23T06:44:31.010Z,63.85
2017-04-23T06:45:32.164Z,63.58
2017-04-23T06:46:33.126Z,63.79
2017-04-23T06:47:34.259Z,63.77
2017-04-23T06:48:35.200Z,63.79
2017-04-23T06:49:49.412Z,63.65
2017-04-23T06:50:53.584Z,63.84
2017-04-23T06:51:54.767Z,64.16
2017-04-23T06:53:05.552Z,64.35
2017-04-23T06:54:08.213Z,64.04
2017-04-23T06:55:09.624Z,64.23
2017-04-23T06:56:11.811Z,64.07
2017-04-23T06:57:13.840Z,64.15
2017-04-23T06:58:15.227Z,64.21
2017-04-23T06:59:16.980Z,64.31
2017-04-23T07:00:18.702Z,64.51
2017-04-23T07:01:19.760Z,64.22
2017-04-23T07:02:21.675Z,64.46
2017-04-23T07:03:27.033Z,64.48
2017-04-23T07:04:29.583Z,64.43
2017-04-23T07:05:30.714Z,64.48
2017-04-23T07:06:31.849Z,64.30
2017-04-23T07:07:33.031Z,64.39
2017-04-23T07:08:34.448Z,64.13
2017-04-23T07:09:35.682Z,64.12
2017-04-23T07:10:37.732Z,64.06
2017-04-23T07:11:38.919Z,63.91
2017-04-23T07:12:40.101Z,64.06
2017-04-23T07:13:41.307Z,64.05
2017-04-23T07:14:42.630Z,63.79
2017-04-23T07:15:43.771Z,63.87
2017-04-23T07:16:45.034Z,63.97
2017-04-23T07:17:46.285Z,63.91
2017-04-23T07:18:48.212Z,64.03
2017-04-23T07:19:49.359Z,64.28
2017-04-23T07:20:50.480Z,64.30
2017-04-23T07:21:51.632Z,64.36
2017-04-23T07:22:52.844Z,64.05
2017-04-23T07:23:54.053Z,64.02
2017-04-23T07:24:55.542Z,63.91
2017-04-23T07:25:56.852Z,63.62
2017-04-23T07:26:58.006Z,63.66
2017-04-23T07:27:59.184Z,63.57
2017-04-23T07:29:03.577Z,63.37
2017-04-23T07:30:04.703Z,63.32
2017-04-23T07:31:05.858Z,63.26
2017-04-23T07:32:07.079Z,63.33
2017-04-23T07:33:08.269Z,63.27
2017-04-23T07:34:16.081Z,63.08
2017-04-23T07:35:19.793Z,62.97
2017-04-23T07:36:21.144Z,62.91
2017-04-23T07:37:23.316Z,63.21
2017-04-23T07:38:24.976Z,63.18
2017-04-23T07:39:27.813Z,63.22
2017-04-23T07:40:34.669Z,63.13
2017-04-23T07:41:36.576Z,63.08
2017-04-23T07:42:38.282Z,63.08
2017-04-23T07:43:40.011Z,63.02
2017-04-23T07:44:41.420Z,63.13
2017-04-23T07:45:45.029Z,63.09
2017-04-23T07:46:46.972Z,63.02
2017-04-23T07:47:49.212Z,62.82
2017-04-23T07:48:50.546Z,63.02
2017-04-23T07:49:52.401Z,63.16
2017-04-23T07:50:53.854Z,63.04
2017-04-23T07:51:55.569Z,63.02
2017-04-23T07:52:57.603Z,63.09
2017-04-23T07:53:58.912Z,63.51
2017-04-23T07:55:00.534Z,63.68
2017-04-23T07:56:05.047Z,63.90
2017-04-23T07:57:07.878Z,63.89
2017-04-23T07:58:14.119Z,63.66
2017-04-23T07:59:21.485Z,63.50
2017-04-23T08:00:24.419Z,63.11
2017-04-23T08:01:27.536Z,62.80
2017-04-23T08:02:29.900Z,62.58
2017-04-23T08:03:34.968Z,62.34
2017-04-23T08:04:40.632Z,61.96
2017-04-23T08:05:42.515Z,61.83
2017-04-23T08:06:45.081Z,62.07
2017-04-23T08:07:46.536Z,62.16
2017-04-23T08:08:53.652Z,62.51
2017-04-23T08:09:56.215Z,63.15
2017-04-23T08:11:01.027Z,64.00
2017-04-23T08:12:05.697Z,65.30
2017-04-23T08:13:09.363Z,65.94
2017-04-23T08:14:12.089Z,66.74
2017-04-23T08:15:16.532Z,67.72
2017-04-23T08:16:19.107Z,68.05
2017-04-23T08:17:20.961Z,68.20
2017-04-23T08:18:23.861Z,68.84
2017-04-23T08:19:24.967Z,68.98
2017-04-23T08:20:26.099Z,69.40
2017-04-23T08:21:28.088Z,68.78
2017-04-23T08:22:31.915Z,68.33
2017-04-23T08:23:35.275Z,68.30
2017-04-23T08:24:38.464Z,68.30
2017-04-23T08:25:42.451Z,68.38
2017-04-23T08:26:46.439Z,68.56
2017-04-23T08:27:51.057Z,68.29
2017-04-23T08:28:56.197Z,68.33
2017-04-23T08:30:00.030Z,68.08
2017-04-23T08:31:03.111Z,68.31
2017-04-23T08:32:06.996Z,68.12
2017-04-23T08:33:10.548Z,67.99
2017-04-23T08:34:12.114Z,68.69
2017-04-23T08:35:17.564Z,67.97
2017-04-23T08:36:22.565Z,68.01
2017-04-23T08:37:27.886Z,67.78
2017-04-23T08:38:35.505Z,68.45
2017-04-23T08:39:39.489Z,68.47
2017-04-23T08:40:44.281Z,67.84
2017-04-23T08:41:47.196Z,66.98
2017-04-23T08:42:52.777Z,66.81
2017-04-23T08:43:56.866Z,67.20
2017-04-23T08:44:59.948Z,66.85
2017-04-23T08:46:03.231Z,67.31
2017-04-23T08:47:06.759Z,67.60
2017-04-23T08:48:11.045Z,67.11
2017-04-23T08:49:16.898Z,65.95
2017-04-23T08:50:20.718Z,65.45
2017-04-23T08:51:27.298Z,65.92
2017-04-23T08:52:31.674Z,64.85
2017-04-23T08:53:32.848Z,64.63
2017-04-23T08:54:34.439Z,64.57
2017-04-23T08:55:35.855Z,65.13
2017-04-23T08:56:39.451Z,64.86
2017-04-23T08:57:42.388Z,65.17
2017-04-23T08:58:46.037Z,65.12
2017-04-23T08:59:51.787Z,64.45
2017-04-23T09:00:57.383Z,63.91
2017-04-23T09:02:03.272Z,63.51
2017-04-23T09:03:05.014Z,63.38
2017-04-23T09:04:10.979Z,63.60
2017-04-23T09:05:15.647Z,63.32
2017-04-23T09:06:20.482Z,62.60
2017-04-23T09:07:22.755Z,61.13
2017-04-23T09:08:26.655Z,60.41
2017-04-23T09:09:32.792Z,60.33
2017-04-23T09:10:36.833Z,60.41
2017-04-23T09:11:39.390Z,60.03
2017-04-23T09:12:44.296Z,59.98
2017-04-23T09:13:47.205Z,60.62
2017-04-23T09:14:51.133Z,60.41
2017-04-23T09:15:54.171Z,60.49
2017-04-23T09:16:59.683Z,58.42
2017-04-23T09:18:02.969Z,58.44
2017-04-23T09:19:10.150Z,58.38
2017-04-23T09:20:15.094Z,58.53
2017-04-23T09:21:20.624Z,58.75
2017-04-23T09:22:23.462Z,58.61
2017-04-23T09:23:28.808Z,58.84
2017-04-23T09:24:32.146Z,57.97
2017-04-23T09:25:36.266Z,57.16
2017-04-23T09:26:38.517Z,56.77
2017-04-23T09:27:44.789Z,56.89
2017-04-23T09:28:49.162Z,57.07
2017-04-23T09:29:55.044Z,57.37
2017-04-23T09:31:01.639Z,58.00
2017-04-23T09:32:04.980Z,57.46
2017-04-23T09:33:07.149Z,56.95
2017-04-23T09:34:08.268Z,57.31
2017-04-23T09:35:09.655Z,57.27
2017-04-23T09:36:14.760Z,57.45
2017-04-23T09:37:17.237Z,57.97
2017-04-23T09:38:19.419Z,58.36
2017-04-23T09:39:22.720Z,58.74
2017-04-23T09:40:27.751Z,59.05
2017-04-23T09:41:32.200Z,59.84
2017-04-23T09:42:35.069Z,60.84
2017-04-23T09:43:39.827Z,61.38
2017-04-23T09:44:43.299Z,61.12
2017-04-23T09:45:47.658Z,61.69
2017-04-23T09:46:52.779Z,61.96
2017-04-23T09:47:57.341Z,62.42
2017-04-23T09:49:01.457Z,62.21
2017-04-23T09:50:05.151Z,62.90
2017-04-23T10:06:22.129Z,21.73
2017-04-23T10:07:25.644Z,25.28
2017-04-23T10:08:28.177Z,28.72
2017-04-23T10:09:30.031Z,32.24
2017-04-23T10:10:35.058Z,35.46
2017-04-23T10:11:39.115Z,37.74
2017-04-23T10:12:44.447Z,39.59
2017-04-23T10:13:49.097Z,41.84
2017-04-23T10:14:53.352Z,44.28
2017-04-23T10:15:55.723Z,46.17
2017-04-23T10:16:56.892Z,45.79
2017-04-23T10:18:00.428Z,46.04
2017-04-23T10:19:03.883Z,47.03
2017-04-23T10:20:05.908Z,47.84
2017-04-23T10:21:08.447Z,48.73
2017-04-23T10:22:11.713Z,49.52
2017-04-23T10:23:14.847Z,50.00
2017-04-23T10:24:19.848Z,50.64
2017-04-23T10:25:22.285Z,50.31
2017-04-23T10:26:26.117Z,50.36
2017-04-23T10:27:31.047Z,50.90
2017-04-23T10:28:34.413Z,51.10
2017-04-23T10:29:39.514Z,51.45
2017-04-23T10:30:42.577Z,51.70
2017-04-23T10:31:47.613Z,50.50
2017-04-23T10:32:52.874Z,49.58
2017-04-23T10:33:58.604Z,49.92
2017-04-23T10:35:01.936Z,50.55
2017-04-23T10:36:07.960Z,49.48
2017-04-23T10:37:13.977Z,49.48
2017-04-23T10:38:18.415Z,48.92
2017-04-23T10:39:22.585Z,49.05
2017-04-23T10:40:26.891Z,48.65
2017-04-23T10:41:30.347Z,48.02
2017-04-23T10:42:34.454Z,48.43
2017-04-23T10:43:44.540Z,48.56
2017-04-23T10:44:48.342Z,47.79
2017-04-23T10:45:52.700Z,47.91
2017-04-23T10:46:54.616Z,47.80
2017-04-23T10:47:57.924Z,47.62
2017-04-23T10:48:59.330Z,47.95
2017-04-23T10:50:00.770Z,47.77
2017-04-23T10:51:01.976Z,46.75
2017-04-23T10:52:03.138Z,46.40
2017-04-23T10:53:04.393Z,47.05
2017-04-23T10:54:05.375Z,47.14
2017-04-23T10:55:06.822Z,47.78
2017-04-23T10:56:08.489Z,47.54
2017-04-23T10:57:09.613Z,47.73
2017-04-23T10:58:10.836Z,47.28
2017-04-23T10:59:11.773Z,47.39
2017-04-23T11:00:12.704Z,46.96
2017-04-23T11:01:13.736Z,46.69
2017-04-23T11:02:14.884Z,46.19
2017-04-23T11:03:16.379Z,46.63
2017-04-23T11:04:17.553Z,46.99
2017-04-23T11:05:18.687Z,47.18
2017-04-23T11:06:19.776Z,47.62
2017-04-23T11:07:21.143Z,47.87
2017-04-23T11:08:22.291Z,48.39
2017-04-23T11:09:23.464Z,48.33
2017-04-23T11:10:25.103Z,48.28
2017-04-23T11:11:26.269Z,48.22
2017-04-23T11:12:27.424Z,48.32
2017-04-23T11:13:28.343Z,47.79
2017-04-23T11:14:29.560Z,47.60
2017-04-23T11:15:30.722Z,47.86
2017-04-23T11:16:45.862Z,47.93
2017-04-23T11:17:50.984Z,48.03
2017-04-23T11:18:52.303Z,47.70
2017-04-23T11:19:53.454Z,46.43
2017-04-23T11:20:54.805Z,46.38
2017-04-23T11:21:56.001Z,46.55
2017-04-23T11:22:57.413Z,46.47
2017-04-23T11:23:58.679Z,46.24
2017-04-23T11:25:00.151Z,45.21
2017-04-23T11:26:01.375Z,45.33
2017-04-23T11:27:02.671Z,44.85
2017-04-23T11:28:03.845Z,45.66
2017-04-23T11:29:04.877Z,45.63
2017-04-23T11:30:06.884Z,45.82
2017-04-23T11:31:08.107Z,45.67
2017-04-23T11:32:09.459Z,45.97
2017-04-23T11:33:10.884Z,46.23
2017-04-23T11:34:12.489Z,46.46
2017-04-23T11:35:13.592Z,46.68
2017-04-23T11:36:14.790Z,47.08
2017-04-23T11:37:16.307Z,47.71
2017-04-23T11:38:17.754Z,48.05
2017-04-23T11:39:18.803Z,47.48
2017-04-23T11:40:20.100Z,46.81
2017-04-23T11:41:21.336Z,45.86
2017-04-23T11:42:22.489Z,45.50
2017-04-23T11:43:23.644Z,45.35
2017-04-23T11:44:24.899Z,45.31
2017-04-23T11:45:26.224Z,45.31
2017-04-23T11:46:27.647Z,44.19
2017-04-23T11:47:29.004Z,44.19
2017-04-23T11:48:30.049Z,44.59
2017-04-23T11:49:31.571Z,44.23
2017-04-23T11:50:33.032Z,44.35
2017-04-23T11:51:34.404Z,44.47
2017-04-23T11:52:35.769Z,44.09
2017-04-23T11:53:39.745Z,44.06
2017-04-23T11:54:41.107Z,44.07
2017-04-23T11:55:42.333Z,43.89
2017-04-23T11:56:43.525Z,43.96
2017-04-23T11:57:44.751Z,43.71
2017-04-23T11:58:45.952Z,43.36
2017-04-23T11:59:47.385Z,43.52
2017-04-23T12:00:48.654Z,43.13
2017-04-23T12:01:49.894Z,42.31
2017-04-23T12:02:50.897Z,42.38
2017-04-23T12:03:52.090Z,41.99
2017-04-23T12:04:53.346Z,41.50
2017-04-23T12:05:54.771Z,41.44
2017-04-23T12:06:56.325Z,41.61
2017-04-23T12:07:57.518Z,42.29
2017-04-23T12:08:58.777Z,42.46
2017-04-23T12:10:00.076Z,42.64
2017-04-23T12:11:01.623Z,42.80
2017-04-23T12:12:02.983Z,42.75
2017-04-23T12:13:03.959Z,43.10
2017-04-23T12:14:05.112Z,42.76
2017-04-23T12:15:06.357Z,42.36
2017-04-23T12:16:07.637Z,42.17
2017-04-23T12:17:08.820Z,42.25
2017-04-23T12:18:10.143Z,42.27
2017-04-23T12:19:11.186Z,41.75
2017-04-23T12:20:12.383Z,42.14
2017-04-23T12:21:13.869Z,42.35
2017-04-23T12:22:15.059Z,42.72
2017-04-23T12:23:16.411Z,42.91
2017-04-23T12:24:17.826Z,42.74
2017-04-23T12:25:19.043Z,42.85
2017-04-23T12:26:20.189Z,42.96
2017-04-23T12:27:21.426Z,42.86
2017-04-23T12:28:22.600Z,43.33
2017-04-23T12:29:23.701Z,43.51
2017-04-23T12:30:24.851Z,43.32
2017-04-23T12:31:26.041Z,43.50
2017-04-23T12:32:27.236Z,43.60
2017-04-23T12:33:28.615Z,43.26
2017-04-23T12:34:29.935Z,43.56
2017-04-23T12:35:31.232Z,43.84
2017-04-23T12:36:32.178Z,44.00
2017-04-23T12:37:33.330Z,44.17
2017-04-23T12:38:34.517Z,44.14
2017-04-23T12:39:35.733Z,44.04
2017-04-23T12:40:36.964Z,43.52
2017-04-23T12:41:38.321Z,43.29
2017-04-23T12:42:39.531Z,43.33
2017-04-23T12:43:40.730Z,43.76
2017-04-23T12:44:41.952Z,44.38
2017-04-23T12:45:43.110Z,44.38
2017-04-23T12:46:44.548Z,44.52
2017-04-23T12:47:46.474Z,44.22
2017-04-23T12:48:47.648Z,44.28
2017-04-23T12:49:49.011Z,44.21
2017-04-23T12:50:50.175Z,44.06
2017-04-23T12:51:51.632Z,43.61
2017-04-23T12:52:52.916Z,43.46
2017-04-23T12:53:54.109Z,43.50
2017-04-23T12:54:55.392Z,43.47
2017-04-23T12:55:56.696Z,43.33
2017-04-23T12:56:58.028Z,42.52
2017-04-23T12:57:59.240Z,41.59
2017-04-23T12:59:00.607Z,40.89
2017-04-23T13:00:02.038Z,39.75
2017-04-23T13:01:03.381Z,40.40
2017-04-23T13:02:05.300Z,40.70
2017-04-23T13:03:06.337Z,40.20
2017-04-23T13:04:07.780Z,40.18
2017-04-23T13:05:09.837Z,40.52
2017-04-23T13:06:10.969Z,41.03
2017-04-23T13:07:12.416Z,40.78
2017-04-23T13:08:13.562Z,40.20
2017-04-23T13:09:15.001Z,40.29
2017-04-23T13:10:17.241Z,40.53
2017-04-23T13:11:18.407Z,40.54
2017-04-23T13:12:19.740Z,40.57
2017-04-23T13:13:21.029Z,39.99
2017-04-23T13:14:22.659Z,40.05
2017-04-23T13:15:23.802Z,40.13
2017-04-23T13:16:25.296Z,40.01
2017-04-23T13:17:26.920Z,39.95
2017-04-23T13:18:28.065Z,40.17
2017-04-23T13:19:29.333Z,40.30
2017-04-23T13:20:30.706Z,40.54
2017-04-23T13:21:31.961Z,40.22
2017-04-23T13:22:33.213Z,40.39
2017-04-23T13:23:34.530Z,40.36
2017-04-23T13:24:36.142Z,40.84
2017-04-23T13:25:37.603Z,41.04
2017-04-23T13:26:38.775Z,40.74
2017-04-23T13:27:40.232Z,40.87
2017-04-23T13:28:41.465Z,40.64
2017-04-23T13:29:42.787Z,40.67
2017-04-23T13:30:44.040Z,40.79
2017-04-23T13:31:45.347Z,40.56